Shunyo Maru No.8 — JK5145 — position and weather

sailwx.info

Track history (hours):
 
Tides and Currents Weather Stations Pressure Air Temp Water Temp Dewpoint Dewpoint Depression Visibility Wind Speed Wind Dir Waves Ship Positions

Shunyo Maru No.8

Last reported at 2017-Oct-17 03:16 UTC. Time now 2017-Oct-17 05:47 UTC.
Position N 34°03' E 135°02'.

Length 55 m; draft 3 m.

Type: Tanker. MMSI: 431400039.

Date/timePositionNaut miles runAvg speedWind from/ knotsBaromVisibWave heightAir tempDewpointWater temp
2017-Oct-17 03:16N 34°03' E 135°02'311.7
2017-Oct-17 03:01N 34°06' E 135°03'6 6.7
2017-Oct-17 02:12N 34°10' E 135°08'0 2.4
2017-Oct-17 02:00N 34°10' E 135°08'510.0
2017-Oct-17 01:30N 34°09' E 135°02'5 9.9
2017-Oct-17 00:59N 34°08' E 134°55'29 0.6
2017-Oct-15 02:32N 34°37' E 134°58'3 8.9
2017-Oct-15 02:14N 34°37' E 135°01'2 8.4
2017-Oct-15 02:00N 34°36' E 135°03'510.5
2017-Oct-15 01:30N 34°36' E 135°09'611.0
2017-Oct-15 01:00N 34°38' E 135°16'4 7.4
2017-Oct-15 00:30N 34°42' E 135°16'0 0.0
2017-Oct-15 00:00N 34°42' E 135°16'0 0.0
2017-Oct-14 23:30N 34°42' E 135°16'2 3.4
2017-Oct-14 23:00N 34°41' E 135°15'4 7.5
2017-Oct-14 22:30N 34°37' E 135°15'0 0.0
2017-Oct-14 22:00N 34°37' E 135°15'0 0.0
2017-Oct-14 21:30N 34°37' E 135°15'0 0.0
2017-Oct-14 21:00N 34°37' E 135°15'0 0.0
2017-Oct-14 20:30N 34°37' E 135°15'0 0.0
2017-Oct-14 20:00N 34°37' E 135°15'0 0.0
2017-Oct-14 19:30N 34°37' E 135°15'0 0.0
2017-Oct-14 19:00N 34°37' E 135°15'0 0.0
2017-Oct-14 18:30N 34°37' E 135°15'0 0.0
2017-Oct-14 18:00N 34°37' E 135°15'0 0.0
2017-Oct-14 17:30N 34°37' E 135°15'0 0.0
2017-Oct-14 17:00N 34°37' E 135°15'0 0.0
2017-Oct-14 16:30N 34°37' E 135°15'0 0.0
2017-Oct-14 15:58N 34°37' E 135°15'0 0.0
2017-Oct-14 15:30N 34°37' E 135°15'0 0.0
2017-Oct-14 15:00N 34°37' E 135°15'0 0.0
2017-Oct-14 14:30N 34°37' E 135°15'0 0.0
2017-Oct-14 14:00N 34°37' E 135°15'0 0.1
2017-Oct-14 13:30N 34°37' E 135°16'0 0.0
2017-Oct-14 13:00N 34°37' E 135°16'0 0.0
2017-Oct-14 12:30N 34°37' E 135°16'0 0.0
2017-Oct-14 12:00N 34°37' E 135°16'0 0.0
2017-Oct-14 11:30N 34°37' E 135°16'0 0.0
2017-Oct-14 11:00N 34°37' E 135°16'0 0.0
2017-Oct-14 10:30N 34°37' E 135°16'0 0.0
2017-Oct-14 10:00N 34°37' E 135°16'0 0.0
2017-Oct-14 09:30N 34°37' E 135°16'0 0.0
2017-Oct-14 08:59N 34°37' E 135°16'0 0.0
2017-Oct-14 08:30N 34°37' E 135°16'0 0.0
2017-Oct-14 08:00N 34°37' E 135°16'0 0.0
2017-Oct-14 07:30N 34°37' E 135°16'0 0.0
2017-Oct-14 07:00N 34°37' E 135°16'0 0.0
2017-Oct-14 06:30N 34°37' E 135°16'0 0.0
2017-Oct-14 06:00N 34°37' E 135°16'0 0.0
2017-Oct-14 05:30N 34°37' E 135°16'0 0.0
2017-Oct-14 05:00N 34°37' E 135°16'0 0.0
2017-Oct-14 04:30N 34°37' E 135°16'0 0.1
2017-Oct-14 04:00N 34°37' E 135°15'3 6.2
2017-Oct-14 03:30N 34°34' E 135°15'611.3
2017-Oct-14 03:00N 34°29' E 135°11'610.8
2017-Oct-14 02:27N 34°24' E 135°08'811.0
2017-Oct-14 01:46N 34°17' E 135°04'310.9
2017-Oct-14 01:30N 34°14' E 135°03'511.0
2017-Oct-14 01:00N 34°09' E 135°02'610.8
2017-Oct-14 00:27N 34°03' E 135°02'  
2017-Oct-10 00:50N 35°38' E 139°59'15 0.9
2017-Oct-09 08:43N 35°26' E 139°48'311.0
2017-Oct-09 08:24N 35°23' E 139°46'510.8
2017-Oct-09 07:55N 35°18' E 139°45'511.1
2017-Oct-09 07:29N 35°14' E 139°47'510.9
2017-Oct-09 07:00N 35°09' E 139°46'510.6
2017-Oct-09 06:30N 35°04' E 139°43'510.0
2017-Oct-09 06:00N 35°01' E 139°38'510.5
2017-Oct-09 05:29N 34°58' E 139°33'  
Track history (hours):
 
Tides and Currents Weather Stations Pressure Air Temp Water Temp Dewpoint Dewpoint Depression Visibility Wind Speed Wind Dir Waves Ship Positions

Shunyo Maru No.8

Last reported at 2017-Oct-17 03:16 UTC. Time now 2017-Oct-17 05:47 UTC.
Position N 34°03' E 135°02'.

Length 55 m; draft 3 m.

Type: Tanker. MMSI: 431400039.

Date/timePositionNaut miles runAvg speedWind from/ knotsBaromVisibWave heightAir tempDewpointWater temp
2017-Oct-17 03:16N 34°03' E 135°02'311.7
2017-Oct-17 03:01N 34°06' E 135°03'6 6.7
2017-Oct-17 02:12N 34°10' E 135°08'0 2.4
2017-Oct-17 02:00N 34°10' E 135°08'510.0
2017-Oct-17 01:30N 34°09' E 135°02'5 9.9
2017-Oct-17 00:59N 34°08' E 134°55'29 0.6
2017-Oct-15 02:32N 34°37' E 134°58'3 8.9
2017-Oct-15 02:14N 34°37' E 135°01'2 8.4
2017-Oct-15 02:00N 34°36' E 135°03'510.5
2017-Oct-15 01:30N 34°36' E 135°09'611.0
2017-Oct-15 01:00N 34°38' E 135°16'4 7.4
2017-Oct-15 00:30N 34°42' E 135°16'0 0.0
2017-Oct-15 00:00N 34°42' E 135°16'0 0.0
2017-Oct-14 23:30N 34°42' E 135°16'2 3.4
2017-Oct-14 23:00N 34°41' E 135°15'4 7.5
2017-Oct-14 22:30N 34°37' E 135°15'0 0.0
2017-Oct-14 22:00N 34°37' E 135°15'0 0.0
2017-Oct-14 21:30N 34°37' E 135°15'0 0.0
2017-Oct-14 21:00N 34°37' E 135°15'0 0.0
2017-Oct-14 20:30N 34°37' E 135°15'0 0.0
2017-Oct-14 20:00N 34°37' E 135°15'0 0.0
2017-Oct-14 19:30N 34°37' E 135°15'0 0.0
2017-Oct-14 19:00N 34°37' E 135°15'0 0.0
2017-Oct-14 18:30N 34°37' E 135°15'0 0.0
2017-Oct-14 18:00N 34°37' E 135°15'0 0.0
2017-Oct-14 17:30N 34°37' E 135°15'0 0.0
2017-Oct-14 17:00N 34°37' E 135°15'0 0.0
2017-Oct-14 16:30N 34°37' E 135°15'0 0.0
2017-Oct-14 15:58N 34°37' E 135°15'0 0.0
2017-Oct-14 15:30N 34°37' E 135°15'0 0.0
2017-Oct-14 15:00N 34°37' E 135°15'0 0.0
2017-Oct-14 14:30N 34°37' E 135°15'0 0.0
2017-Oct-14 14:00N 34°37' E 135°15'0 0.1
2017-Oct-14 13:30N 34°37' E 135°16'0 0.0
2017-Oct-14 13:00N 34°37' E 135°16'0 0.0
2017-Oct-14 12:30N 34°37' E 135°16'0 0.0
2017-Oct-14 12:00N 34°37' E 135°16'0 0.0
2017-Oct-14 11:30N 34°37' E 135°16'0 0.0
2017-Oct-14 11:00N 34°37' E 135°16'0 0.0
2017-Oct-14 10:30N 34°37' E 135°16'0 0.0
2017-Oct-14 10:00N 34°37' E 135°16'0 0.0
2017-Oct-14 09:30N 34°37' E 135°16'0 0.0
2017-Oct-14 08:59N 34°37' E 135°16'0 0.0
2017-Oct-14 08:30N 34°37' E 135°16'0 0.0
2017-Oct-14 08:00N 34°37' E 135°16'0 0.0
2017-Oct-14 07:30N 34°37' E 135°16'0 0.0
2017-Oct-14 07:00N 34°37' E 135°16'0 0.0
2017-Oct-14 06:30N 34°37' E 135°16'0 0.0
2017-Oct-14 06:00N 34°37' E 135°16'0 0.0
2017-Oct-14 05:30N 34°37' E 135°16'0 0.0
2017-Oct-14 05:00N 34°37' E 135°16'0 0.0
2017-Oct-14 04:30N 34°37' E 135°16'0 0.1
2017-Oct-14 04:00N 34°37' E 135°15'3 6.2
2017-Oct-14 03:30N 34°34' E 135°15'611.3
2017-Oct-14 03:00N 34°29' E 135°11'610.8
2017-Oct-14 02:27N 34°24' E 135°08'811.0
2017-Oct-14 01:46N 34°17' E 135°04'310.9
2017-Oct-14 01:30N 34°14' E 135°03'511.0
2017-Oct-14 01:00N 34°09' E 135°02'610.8
2017-Oct-14 00:27N 34°03' E 135°02'  
2017-Oct-10 00:50N 35°38' E 139°59'15 0.9
2017-Oct-09 08:43N 35°26' E 139°48'311.0
2017-Oct-09 08:24N 35°23' E 139°46'510.8
2017-Oct-09 07:55N 35°18' E 139°45'511.1
2017-Oct-09 07:29N 35°14' E 139°47'510.9
2017-Oct-09 07:00N 35°09' E 139°46'510.6
2017-Oct-09 06:30N 35°04' E 139°43'510.0
2017-Oct-09 06:00N 35°01' E 139°38'510.5
2017-Oct-09 05:29N 34°58' E 139°33'  

Dump ship's entire track history